Forside
METAR-TAF:

METAR-TAF

Lufthavne :

Clintonville, Wisconsin, USA

Breddekreds: 44-36-50N, længdekreds: 088-43-53W, højde: 251 m

Aktuelle vejr

Denne rapport blev lavet for 17 minutter siden, kl. 03:35 UTC
Vind 8 kt fra østsydøst
Temperatur -3°C
Fugtighed 86%
Tryk 1024 hPa
Sigt: 1.6 km
Overskyet i en højde af 800 ft
sne

METAR: KCLI 180335Z AUTO 11008KT 1SM SN OVC008 M03/M05 A3023 RMK AO2 T10321047

Tid: 21:52 (03:52 UTC)


TAF: fraværende

Vejrobservationer og prognoser fra mere end 4000 lufthavne (METAR og TAF).

De gule og røde prikker repræsenterer de meteorologiske stationer.

Flyt musen over at se navnet på stationen.

Så klik over at se vejr observationer og prognoser.

At skifte det kort: Klik på de grønne knapper med et sort kors for at zoome ind; på den grønne knap med en bindestreg for at zoome ud; eller på de grønne pile for tilstødende kort.


METAR-TAF: